Time;durP1;ratioP1;P1;durP2;ratioP2;P2;SDS_P1;SDS_P2;PMS_P1;PMS_P2;Temp;Humidity;BMP_temperature;BMP_pressure;BME280_temperature;BME280_humidity;BME280_pressure;Samples;Min_cycle;Max_cycle;Signal;HPM_P1;HPM_P2
2022/10/20 00:01:19;;;;;;;23.95;14.52;;;6.40;99.90;;;;;;5068485;28;20041;-57
2022/10/20 00:03:46;;;;;;;24.50;14.45;;;6.60;99.90;;;;;;5068762;28;20020;-58
2022/10/20 00:06:24;;;;;;;30.27;14.70;;;6.50;99.90;;;;;;5068480;28;20104;-58
2022/10/20 00:08:50;;;;;;;25.77;14.88;;;6.50;99.90;;;;;;5068931;28;20071;-57
2022/10/20 00:11:18;;;;;;;27.02;14.02;;;6.60;99.90;;;;;;5069377;28;20032;-58
2022/10/20 00:13:46;;;;;;;27.77;13.98;;;6.50;99.90;;;;;;5067889;28;20024;-58
2022/10/20 00:16:13;;;;;;;22.90;12.77;;;6.30;99.90;;;;;;5068873;28;20035;-58
2022/10/20 00:18:38;;;;;;;22.92;13.43;;;6.20;99.90;;;;;;5068662;28;20016;-58
2022/10/20 00:21:06;;;;;;;24.20;13.93;;;6.10;99.90;;;;;;5068609;28;20044;-58
2022/10/20 00:23:32;;;;;;;20.25;12.05;;;6.10;99.90;;;;;;5068788;28;20025;-57
2022/10/20 00:26:07;;;;;;;22.42;12.98;;;6.00;99.90;;;;;;5069635;28;20025;-59
2022/10/20 00:28:33;;;;;;;21.65;12.75;;;6.00;99.90;;;;;;5069394;28;20021;-58
2022/10/20 00:30:59;;;;;;;24.55;13.68;;;5.90;99.90;;;;;;5069433;28;20543;-59
2022/10/20 00:33:25;;;;;;;24.17;13.73;;;5.90;99.90;;;;;;5069504;28;20048;-60
2022/10/20 00:35:51;;;;;;;26.13;13.07;;;5.90;99.90;;;;;;5069360;28;20035;-58
2022/10/20 00:38:17;;;;;;;24.50;12.75;;;5.80;99.90;;;;;;5069382;28;20104;-59
2022/10/20 00:40:42;;;;;;;22.20;12.10;;;5.70;99.90;;;;;;5068058;28;20029;-59
2022/10/20 00:43:13;;;;;;;25.70;14.15;;;5.60;99.90;;;;;;5069502;28;20025;-58
2022/10/20 00:45:40;;;;;;;25.95;14.88;;;5.60;99.90;;;;;;5069566;28;20391;-59
2022/10/20 00:48:11;;;;;;;;;;;5.50;99.90;;;;;;5073554;28;20025;-59
2022/10/20 00:50:43;;;;;;;25.33;13.65;;;5.50;99.90;;;;;;5072830;28;20267;-57
2022/10/20 00:53:09;;;;;;;32.25;14.00;;;5.40;99.90;;;;;;5072458;28;20431;-58
2022/10/20 00:55:40;;;;;;;30.77;12.48;;;5.40;99.90;;;;;;5072572;28;20031;-59
2022/10/20 00:58:06;;;;;;;23.67;14.32;;;5.40;99.90;;;;;;5072388;28;20054;-58
2022/10/20 01:00:31;;;;;;;24.50;14.60;;;5.40;99.90;;;;;;5072696;28;20073;-58
2022/10/20 01:02:59;;;;;;;24.30;13.70;;;5.30;99.90;;;;;;5073179;28;20353;-57
2022/10/20 01:05:26;;;;;;;23.98;14.27;;;5.30;99.90;;;;;;5072753;28;20383;-59
2022/10/20 01:07:52;;;;;;;21.90;13.13;;;5.30;99.90;;;;;;5073116;28;20017;-58
2022/10/20 01:10:19;;;;;;;28.38;14.50;;;5.30;99.90;;;;;;5072586;28;20059;-59
2022/10/20 01:12:53;;;;;;;29.80;14.00;;;5.30;99.90;;;;;;5072978;28;20031;-56
2022/10/20 01:15:37;;;;;;;26.92;14.38;;;5.10;99.90;;;;;;5072570;28;20062;-58
2022/10/20 01:18:12;;;;;;;22.98;13.70;;;5.20;99.90;;;;;;5071398;28;20395;-58
2022/10/20 01:21:02;;;;;;;26.35;14.60;;;5.30;99.90;;;;;;5072802;28;20024;-57
2022/10/20 01:23:34;;;;;;;22.67;13.75;;;5.30;99.90;;;;;;5072432;28;20059;-57
2022/10/20 01:26:24;;;;;;;29.13;13.55;;;5.20;99.90;;;;;;5071980;28;20451;-57
2022/10/20 01:29:18;;;;;;;24.40;13.70;;;5.10;99.90;;;;;;5071556;28;20466;-57
2022/10/20 01:32:21;;;;;;;25.60;13.95;;;5.00;99.90;;;;;;5071672;28;20805;-59
2022/10/20 01:35:11;;;;;;;27.75;14.40;;;5.00;99.90;;;;;;5071760;28;20029;-57
2022/10/20 01:38:00;;;;;;;25.23;15.05;;;4.90;99.90;;;;;;5070809;28;20108;-58
2022/10/20 01:40:35;;;;;;;26.45;13.68;;;4.80;99.90;;;;;;5072448;28;20040;-57
2022/10/20 01:43:05;;;;;;;27.20;13.65;;;4.70;99.90;;;;;;5071637;28;20028;-57
2022/10/20 01:45:34;;;;;;;30.35;14.77;;;4.90;99.90;;;;;;5071476;28;20060;-57
2022/10/20 01:48:04;;;;;;;25.85;14.55;;;4.90;99.90;;;;;;5069575;28;20032;-57
2022/10/20 01:50:31;;;;;;;30.15;13.88;;;4.90;99.90;;;;;;5070874;28;20047;-56
2022/10/20 01:52:58;;;;;;;31.00;15.88;;;4.90;99.90;;;;;;5070533;28;20032;-56
2022/10/20 01:55:23;;;;;;;31.60;16.30;;;4.80;99.90;;;;;;5071124;28;20028;-57
2022/10/20 01:58:41;;;;;;;34.38;16.13;;;4.80;99.90;;;;;;5070638;28;20030;-56
2022/10/20 02:01:22;;;;;;;28.85;15.90;;;4.80;99.90;;;;;;5062299;28;20089;-58
2022/10/20 02:03:51;;;;;;;28.10;15.10;;;4.90;99.90;;;;;;5071102;28;20564;-57
2022/10/20 02:06:27;;;;;;;31.23;16.15;;;5.00;99.90;;;;;;5070208;28;20028;-56
2022/10/20 02:08:57;;;;;;;32.53;15.75;;;4.90;99.90;;;;;;5071496;28;20017;-58
2022/10/20 02:11:51;;;;;;;45.85;16.00;;;5.00;99.90;;;;;;5071578;28;20112;-56
2022/10/20 02:14:18;;;;;;;45.42;16.40;;;5.00;99.90;;;;;;5071542;28;20032;-57
2022/10/20 02:17:06;;;;;;;57.30;16.23;;;5.00;99.90;;;;;;5071715;28;20032;-58
2022/10/20 02:19:39;;;;;;;38.60;18.05;;;4.90;99.90;;;;;;5071171;28;20491;-57
2022/10/20 02:22:07;;;;;;;37.13;16.45;;;4.80;99.90;;;;;;5071705;28;20046;-56
2022/10/20 02:24:36;;;;;;;33.20;16.88;;;4.90;99.90;;;;;;5071784;28;20029;-57
2022/10/20 02:27:08;;;;;;;40.75;16.55;;;4.90;99.90;;;;;;5070963;28;20464;-57
2022/10/20 02:29:42;;;;;;;31.30;17.45;;;4.90;99.90;;;;;;5070465;28;20534;-56
2022/10/20 02:32:09;;;;;;;29.75;15.43;;;4.70;99.90;;;;;;5070587;28;20017;-55
2022/10/20 02:34:35;;;;;;;46.33;16.85;;;4.70;99.90;;;;;;5070428;28;20480;-57
2022/10/20 02:37:01;;;;;;;77.18;17.83;;;4.60;99.90;;;;;;5070817;28;20028;-55
2022/10/20 02:39:27;;;;;;;56.55;18.40;;;4.50;99.90;;;;;;5071516;28;20602;-57
2022/10/20 02:41:53;;;;;;;54.65;17.30;;;4.40;99.90;;;;;;5071207;28;20051;-56
2022/10/20 02:44:19;;;;;;;42.00;16.25;;;4.40;99.90;;;;;;5070984;28;20020;-56
2022/10/20 02:46:44;;;;;;;40.25;17.75;;;4.40;99.90;;;;;;5070690;28;20042;-57
2022/10/20 02:49:10;;;;;;;37.95;16.85;;;4.30;99.90;;;;;;5069442;28;20094;-57
2022/10/20 02:51:36;;;;;;;41.33;16.48;;;4.30;99.90;;;;;;5052989;28;20032;-57
2022/10/20 02:54:01;;;;;;;52.53;15.70;;;4.30;99.90;;;;;;5070831;28;20028;-57
2022/10/20 02:56:27;;;;;;;38.42;17.77;;;4.40;99.90;;;;;;5070695;28;20027;-56
2022/10/20 02:58:53;;;;;;;52.42;17.08;;;4.40;99.90;;;;;;5070736;28;20016;-56
2022/10/20 03:01:18;;;;;;;37.60;16.45;;;4.50;99.90;;;;;;5070854;28;20467;-56
2022/10/20 03:03:44;;;;;;;30.00;15.95;;;4.50;99.90;;;;;;5071014;28;20365;-56
2022/10/20 03:06:14;;;;;;;31.75;16.40;;;4.60;99.90;;;;;;5070839;28;20499;-56
2022/10/20 03:08:41;;;;;;;35.45;15.60;;;4.50;99.90;;;;;;5077088;28;20032;-56
2022/10/20 03:11:07;;;;;;;42.47;16.48;;;4.50;99.90;;;;;;5088304;28;20055;-55
2022/10/20 03:13:33;;;;;;;30.20;16.20;;;4.30;99.90;;;;;;5088735;28;20059;-56
2022/10/20 03:16:00;;;;;;;24.70;14.88;;;4.40;99.90;;;;;;5069916;28;20048;-57
2022/10/20 03:18:26;;;;;;;32.65;15.43;;;4.40;99.90;;;;;;5069503;28;20023;-57
2022/10/20 03:20:54;;;;;;;32.80;15.00;;;4.40;99.90;;;;;;5070675;28;20111;-56
2022/10/20 03:23:20;;;;;;;29.83;15.50;;;4.40;99.90;;;;;;5070792;28;20082;-56
2022/10/20 03:25:47;;;;;;;26.83;14.32;;;4.40;99.90;;;;;;5070594;28;20021;-55
2022/10/20 03:28:13;;;;;;;23.38;14.25;;;4.40;99.90;;;;;;5070550;28;20027;-56
2022/10/20 03:30:38;;;;;;;23.80;13.30;;;4.40;99.90;;;;;;5070384;28;20051;-59
2022/10/20 03:33:04;;;;;;;23.20;12.82;;;4.30;99.90;;;;;;5068576;28;20025;-58
2022/10/20 03:35:30;;;;;;;25.38;14.07;;;4.40;99.90;;;;;;5069607;28;20089;-56
2022/10/20 03:37:55;;;;;;;24.85;14.20;;;4.30;99.90;;;;;;5068037;28;20024;-57
2022/10/20 03:40:21;;;;;;;30.75;17.70;;;4.30;99.90;;;;;;5069917;28;20063;-57
2022/10/20 03:42:47;;;;;;;30.75;19.60;;;4.30;99.90;;;;;;5069114;28;20051;-58
2022/10/20 03:45:12;;;;;;;37.95;24.65;;;4.20;99.90;;;;;;5070468;28;20032;-57
2022/10/20 03:47:38;;;;;;;37.40;25.50;;;4.20;99.90;;;;;;5070504;28;20024;-58
2022/10/20 03:50:04;;;;;;;39.03;24.48;;;4.20;99.90;;;;;;5070182;28;20051;-58
2022/10/20 03:52:30;;;;;;;37.85;23.25;;;4.20;99.90;;;;;;5070151;28;20024;-58
2022/10/20 03:54:55;;;;;;;48.55;26.58;;;4.00;99.90;;;;;;5070016;28;20029;-57
2022/10/20 03:57:21;;;;;;;49.78;21.90;;;3.90;99.90;;;;;;5069958;28;20027;-57
2022/10/20 03:59:47;;;;;;;36.53;19.00;;;3.90;99.90;;;;;;5069047;28;20052;-58
2022/10/20 04:02:32;;;;;;;29.15;16.70;;;3.90;99.90;;;;;;5069456;28;20027;-57
2022/10/20 04:04:59;;;;;;;33.45;17.42;;;3.80;99.90;;;;;;5048414;28;20052;-57
2022/10/20 04:07:25;;;;;;;30.83;18.43;;;3.90;99.90;;;;;;5049853;28;20060;-57
2022/10/20 04:09:50;;;;;;;30.23;18.20;;;3.90;99.90;;;;;;5049654;28;20045;-56
2022/10/20 04:12:16;;;;;;;32.47;19.38;;;3.90;99.90;;;;;;5049945;28;20070;-57
2022/10/20 04:14:42;;;;;;;35.70;19.27;;;3.80;99.90;;;;;;5048116;28;20396;-56
2022/10/20 04:17:08;;;;;;;33.33;18.52;;;3.90;99.90;;;;;;5049285;28;20404;-57
2022/10/20 04:19:34;;;;;;;33.30;19.23;;;3.90;99.90;;;;;;5048995;28;20468;-57
2022/10/20 04:21:59;;;;;;;36.33;20.73;;;3.80;99.90;;;;;;5047285;28;20029;-56
2022/10/20 04:24:25;;;;;;;37.92;23.10;;;3.80;99.90;;;;;;5049565;28;20037;-58
2022/10/20 04:26:51;;;;;;;47.05;27.13;;;3.70;99.90;;;;;;5049569;28;20082;-58
2022/10/20 04:29:17;;;;;;;43.13;27.40;;;3.60;99.90;;;;;;5049127;28;20483;-58
2022/10/20 04:31:43;;;;;;;40.90;24.27;;;3.60;99.90;;;;;;5048993;28;20116;-58
2022/10/20 04:34:09;;;;;;;36.53;21.57;;;3.60;99.90;;;;;;5049019;28;20104;-58
2022/10/20 04:36:34;;;;;;;41.03;20.48;;;3.60;99.90;;;;;;5048688;28;20592;-58
2022/10/20 04:39:00;;;;;;;32.42;18.92;;;3.60;99.90;;;;;;5049372;28;20036;-58
2022/10/20 04:41:25;;;;;;;38.35;20.48;;;3.60;99.90;;;;;;5049678;28;20369;-60
2022/10/20 04:43:52;;;;;;;35.78;19.55;;;3.40;99.90;;;;;;5049554;28;20376;-58
2022/10/20 04:46:17;;;;;;;32.88;19.60;;;3.50;99.90;;;;;;5049694;28;20029;-58
2022/10/20 04:48:43;;;;;;;29.60;18.17;;;3.60;99.90;;;;;;5048750;28;20362;-57
2022/10/20 04:51:11;;;;;;;32.92;19.25;;;3.60;99.90;;;;;;5048460;28;20037;-57
2022/10/20 04:53:37;;;;;;;33.08;19.38;;;3.60;99.90;;;;;;5048677;28;20033;-58
2022/10/20 04:56:05;;;;;;;31.38;18.55;;;3.60;99.90;;;;;;5048880;28;20496;-58
2022/10/20 04:58:30;;;;;;;30.10;18.48;;;3.70;99.90;;;;;;5048754;28;20112;-57
2022/10/20 05:01:01;;;;;;;30.77;20.42;;;3.50;99.90;;;;;;5048884;28;20167;-57
2022/10/20 05:03:27;;;;;;;36.70;22.58;;;3.50;99.90;;;;;;5057644;28;20021;-57
2022/10/20 05:05:52;;;;;;;42.30;25.33;;;3.50;99.90;;;;;;5069326;28;20035;-57
2022/10/20 05:08:18;;;;;;;44.78;27.60;;;3.40;99.90;;;;;;5067858;28;20017;-58
2022/10/20 05:10:44;;;;;;;51.35;29.92;;;3.30;99.90;;;;;;5068995;28;20377;-59
2022/10/20 05:13:09;;;;;;;53.55;31.67;;;3.30;99.90;;;;;;5069211;28;20024;-58
2022/10/20 05:15:35;;;;;;;52.10;29.48;;;3.20;99.90;;;;;;5068605;28;20036;-59
2022/10/20 05:18:00;;;;;;;53.50;32.22;;;3.20;99.90;;;;;;5067474;28;20114;-58
2022/10/20 05:20:26;;;;;;;59.80;33.70;;;3.30;99.90;;;;;;5067209;28;20081;-57
2022/10/20 05:22:52;;;;;;;67.30;37.38;;;3.30;99.90;;;;;;5067717;28;20028;-58
2022/10/20 05:25:17;;;;;;;79.60;44.13;;;3.30;99.90;;;;;;5067256;28;20039;-58
2022/10/20 05:27:43;;;;;;;77.63;45.40;;;3.00;99.90;;;;;;5068065;28;20526;-58
2022/10/20 05:30:09;;;;;;;85.07;47.65;;;3.00;99.90;;;;;;5064004;28;20064;-59
2022/10/20 05:32:35;;;;;;;87.03;48.22;;;2.90;99.90;;;;;;5066796;28;20020;-58
2022/10/20 05:35:00;;;;;;;92.53;49.58;;;2.90;99.90;;;;;;5071401;28;20107;-58
2022/10/20 05:37:26;;;;;;;89.28;48.35;;;2.90;99.90;;;;;;5070007;28;20021;-58
2022/10/20 05:39:52;;;;;;;81.68;44.80;;;3.00;99.90;;;;;;5071545;28;20086;-58
2022/10/20 05:42:17;;;;;;;77.55;43.53;;;3.10;99.90;;;;;;5070091;28;20108;-56
2022/10/20 05:44:43;;;;;;;69.90;37.58;;;3.00;99.90;;;;;;5070347;28;20024;-58
2022/10/20 05:47:08;;;;;;;63.20;35.53;;;2.90;99.90;;;;;;5067310;28;20349;-57
2022/10/20 05:49:34;;;;;;;64.90;34.03;;;2.90;99.90;;;;;;5071141;28;20086;-58
2022/10/20 05:52:00;;;;;;;65.00;36.10;;;2.90;99.90;;;;;;5070216;28;20036;-57
2022/10/20 05:54:26;;;;;;;58.17;34.45;;;2.90;99.90;;;;;;5071251;28;20025;-56
2022/10/20 05:56:51;;;;;;;58.83;34.60;;;2.90;99.90;;;;;;5076451;28;20093;-58
2022/10/20 05:59:17;;;;;;;54.72;31.52;;;3.00;99.90;;;;;;5075682;28;20078;-58
2022/10/20 06:01:49;;;;;;;50.78;30.65;;;3.00;99.90;;;;;;5072508;28;20145;-57
2022/10/20 06:04:22;;;;;;;51.65;28.90;;;3.20;99.90;;;;;;5072156;28;20020;-58
2022/10/20 06:06:48;;;;;;;52.35;30.30;;;3.30;99.90;;;;;;5071891;28;20036;-56
2022/10/20 06:09:14;;;;;;;60.45;33.83;;;3.20;99.90;;;;;;5080618;28;20043;-59
2022/10/20 06:11:39;;;;;;;76.72;46.72;;;3.40;99.90;;;;;;5092161;28;20038;-57
2022/10/20 06:14:06;;;;;;;98.85;53.22;;;3.20;99.90;;;;;;5089582;28;20120;-59
2022/10/20 06:16:31;;;;;;;95.03;52.00;;;3.10;99.90;;;;;;5070401;28;20060;-57
2022/10/20 06:18:57;;;;;;;95.50;47.88;;;3.10;99.90;;;;;;5070816;28;20048;-59
2022/10/20 06:21:29;;;;;;;83.32;44.45;;;3.10;99.90;;;;;;5071291;28;20068;-60
2022/10/20 06:23:58;;;;;;;79.75;45.05;;;3.10;99.90;;;;;;5071390;28;20052;-57
2022/10/20 06:26:28;;;;;;;71.65;39.38;;;3.20;99.90;;;;;;5071684;28;20035;-57
2022/10/20 06:28:55;;;;;;;80.25;42.38;;;3.30;99.90;;;;;;5071281;28;20475;-58
2022/10/20 06:31:33;;;;;;;73.75;43.20;;;3.30;99.90;;;;;;5072120;28;20036;-58
2022/10/20 06:33:59;;;;;;;72.32;43.35;;;3.40;99.90;;;;;;5071434;28;20079;-58
2022/10/20 06:36:26;;;;;;;79.47;42.90;;;3.50;99.90;;;;;;5070064;28;20025;-57
2022/10/20 06:38:56;;;;;;;71.50;41.65;;;3.70;99.90;;;;;;5068566;28;20492;-60
2022/10/20 06:41:23;;;;;;;68.43;39.55;;;3.70;99.90;;;;;;5068938;28;20046;-59
2022/10/20 06:43:48;;;;;;;69.35;39.53;;;3.80;99.90;;;;;;5068440;28;20039;-57
2022/10/20 06:46:17;;;;;;;65.90;39.55;;;3.90;99.90;;;;;;5068987;28;20108;-59
2022/10/20 06:48:42;;;;;;;65.53;39.53;;;4.00;99.90;;;;;;5069041;28;20531;-57
2022/10/20 06:51:14;;;;;;;68.88;40.45;;;4.10;99.90;;;;;;5070226;28;20044;-56
2022/10/20 06:53:41;;;;;;;67.55;39.17;;;4.20;99.90;;;;;;5071262;28;20059;-57
2022/10/20 06:56:09;;;;;;;;;;;4.40;99.90;;;;;;5070095;28;20029;-57
2022/10/20 06:58:36;;;;;;;64.63;39.20;;;4.50;99.90;;;;;;5070937;28;20507;-57
2022/10/20 07:01:11;;;;;;;;;;;4.60;99.90;;;;;;5070077;28;20147;-57
2022/10/20 07:03:37;;;;;;;60.70;36.55;;;4.70;99.90;;;;;;5070924;28;19915;-58
2022/10/20 07:06:04;;;;;;;58.33;36.53;;;4.90;99.90;;;;;;5070625;28;20028;-56
2022/10/20 07:08:31;;;;;;;;;;;5.00;99.90;;;;;;5070701;28;20298;-58
2022/10/20 07:11:07;;;;;;;60.03;36.70;;;5.10;99.90;;;;;;5070607;28;19916;-58
2022/10/20 07:13:35;;;;;;;57.10;35.83;;;5.30;99.90;;;;;;5070840;28;20667;-57
2022/10/20 07:16:02;;;;;;;60.38;36.13;;;5.50;99.90;;;;;;5071002;28;20040;-58
2022/10/20 07:18:28;;;;;;;65.70;36.97;;;5.70;99.90;;;;;;5070326;28;20484;-58
2022/10/20 07:21:02;;;;;;;57.30;36.63;;;5.80;99.90;;;;;;5069950;28;20029;-58
2022/10/20 07:23:30;;;;;;;63.40;34.90;;;6.00;99.90;;;;;;5070594;28;20017;-59
2022/10/20 07:26:03;;;;;;;;;;;6.20;99.90;;;;;;5069374;28;20037;-58
2022/10/20 07:28:29;;;;;;;51.05;30.42;;;6.40;99.90;;;;;;5070228;28;19958;-57
2022/10/20 07:30:55;;;;;;;47.85;28.95;;;6.60;99.90;;;;;;5070104;28;20476;-58
2022/10/20 07:33:21;;;;;;;42.00;27.42;;;6.80;99.90;;;;;;5070340;28;20036;-56
2022/10/20 07:35:47;;;;;;;43.30;26.92;;;7.00;99.90;;;;;;5070052;28;20418;-57
2022/10/20 07:38:13;;;;;;;44.33;25.58;;;7.20;99.90;;;;;;5066977;28;20093;-58
2022/10/20 07:40:39;;;;;;;34.38;21.08;;;7.40;99.90;;;;;;5070104;28;20111;-57
2022/10/20 07:43:08;;;;;;;29.75;17.80;;;7.70;99.90;;;;;;5070289;28;20044;-59
2022/10/20 07:45:33;;;;;;;27.65;15.25;;;8.10;99.90;;;;;;5065992;28;20047;-58
2022/10/20 07:48:00;;;;;;;27.50;17.02;;;9.20;99.90;;;;;;5070019;28;20380;-58
2022/10/20 07:50:26;;;;;;;31.20;15.50;;;9.00;99.90;;;;;;5067896;28;20049;-59
2022/10/20 07:52:52;;;;;;;26.98;15.63;;;9.30;99.90;;;;;;5068485;28;20024;-60
2022/10/20 07:55:19;;;;;;;25.48;14.27;;;9.10;99.90;;;;;;5069588;28;20091;-60
2022/10/20 07:57:44;;;;;;;18.98;12.13;;;9.50;99.90;;;;;;5069522;28;20063;-58
2022/10/20 08:00:11;;;;;;;19.20;13.02;;;10.10;99.90;;;;;;5069882;28;20968;-58
2022/10/20 08:02:39;;;;;;;22.38;13.18;;;10.80;99.90;;;;;;5069707;28;20035;-58
2022/10/20 08:05:06;;;;;;;15.60;11.02;;;10.60;99.90;;;;;;5069736;28;20017;-58
2022/10/20 08:07:32;;;;;;;16.40;10.82;;;11.30;99.90;;;;;;5069333;28;20533;-57
2022/10/20 08:10:01;;;;;;;16.42;11.27;;;11.40;99.90;;;;;;5068073;28;20131;-58
2022/10/20 08:12:27;;;;;;;17.58;11.07;;;11.20;99.90;;;;;;5068347;28;20013;-58
2022/10/20 08:14:52;;;;;;;16.85;11.40;;;11.90;99.90;;;;;;5069326;28;20070;-60
2022/10/20 08:17:18;;;;;;;21.92;11.35;;;11.90;99.90;;;;;;5069594;28;20020;-58
2022/10/20 08:19:50;;;;;;;18.13;11.18;;;12.50;99.90;;;;;;5068304;28;20500;-58
2022/10/20 08:22:18;;;;;;;20.42;11.38;;;12.70;99.90;;;;;;5065788;28;20020;-57
2022/10/20 08:24:44;;;;;;;16.23;11.23;;;12.70;99.90;;;;;;5069611;28;20024;-57
2022/10/20 08:27:10;;;;;;;13.95;10.63;;;13.10;99.90;;;;;;5067950;28;20056;-58
2022/10/20 08:29:36;;;;;;;19.40;12.00;;;13.60;99.90;;;;;;5069095;28;20025;-57
2022/10/20 08:32:02;;;;;;;19.98;11.50;;;14.00;99.90;;;;;;5069438;28;20025;-57
2022/10/20 08:34:28;;;;;;;20.33;11.75;;;14.30;99.90;;;;;;5069073;28;20078;-58
2022/10/20 08:36:54;;;;;;;21.65;12.45;;;12.40;99.90;;;;;;5066454;28;20046;-57
2022/10/20 08:39:19;;;;;;;21.27;12.32;;;11.90;99.90;;;;;;5067798;28;20021;-56
2022/10/20 08:41:48;;;;;;;25.15;12.40;;;11.70;99.90;;;;;;5069269;28;20035;-57
2022/10/20 08:44:23;;;;;;;21.75;12.23;;;12.00;99.90;;;;;;5066453;28;20111;-56
2022/10/20 08:46:49;;;;;;;16.20;10.85;;;11.60;99.90;;;;;;5067771;28;20024;-59
2022/10/20 08:49:21;;;;;;;18.05;11.93;;;12.40;99.90;;;;;;5068896;28;20069;-56
2022/10/20 08:51:47;;;;;;;20.73;12.20;;;12.20;99.90;;;;;;5068131;28;20108;-57
2022/10/20 08:54:15;;;;;;;15.23;9.38;;;12.50;99.90;;;;;;5051018;28;20425;-58
2022/10/20 08:56:43;;;;;;;18.77;11.25;;;12.40;99.90;;;;;;5069318;28;20484;-56
2022/10/20 08:59:35;;;;;;;16.70;9.57;;;12.60;99.90;;;;;;5069383;28;20057;-57
2022/10/20 09:02:06;;;;;;;15.23;8.30;;;13.10;99.90;;;;;;5049581;28;20028;-57
2022/10/20 09:04:46;;;;;;;14.88;7.90;;;13.10;99.90;;;;;;5067827;28;20027;-57
2022/10/20 09:07:33;;;;;;;13.63;7.03;;;14.20;99.90;;;;;;5069423;28;20556;-58
2022/10/20 09:10:22;;;;;;;13.90;6.95;;;14.40;96.60;;;;;;5071044;28;20056;-57
2022/10/20 09:12:49;;;;;;;13.27;7.38;;;14.00;99.90;;;;;;5072025;28;20038;-56
2022/10/20 09:15:17;;;;;;;13.15;7.47;;;14.40;98.60;;;;;;5073164;28;20096;-57
2022/10/20 09:18:08;;;;;;;14.43;8.02;;;16.10;93.80;;;;;;5072618;28;20020;-58
2022/10/20 09:20:41;;;;;;;14.15;7.07;;;14.80;94.60;;;;;;5068532;28;20047;-56
2022/10/20 09:23:15;;;;;;;14.07;7.25;;;14.80;93.50;;;;;;5072817;28;20349;-55
2022/10/20 09:25:42;;;;;;;14.55;6.65;;;15.20;94.00;;;;;;5071030;28;20483;-57
2022/10/20 09:28:20;;;;;;;14.30;5.90;;;15.40;91.70;;;;;;5072477;28;20024;-57
2022/10/20 09:30:48;;;;;;;9.95;5.00;;;15.30;93.80;;;;;;5070970;28;20040;-57
2022/10/20 09:33:30;;;;;;;7.88;3.80;;;16.10;86.10;;;;;;5069947;28;20092;-56
2022/10/20 09:36:04;;;;;;;8.07;3.85;;;15.30;87.60;;;;;;5070144;28;20025;-58
2022/10/20 09:38:33;;;;;;;6.38;3.28;;;15.60;87.40;;;;;;5070745;28;20028;-57
2022/10/20 09:41:13;;;;;;;11.13;5.35;;;15.60;84.30;;;;;;5072391;28;20098;-57
2022/10/20 09:43:46;;;;;;;8.23;4.75;;;15.70;83.50;;;;;;5070526;28;20032;-57
2022/10/20 09:46:11;;;;;;;9.30;3.80;;;14.80;88.10;;;;;;5072219;28;20028;-56
2022/10/20 09:48:46;;;;;;;7.70;4.50;;;16.20;81.20;;;;;;5054428;28;20420;-57
2022/10/20 09:51:15;;;;;;;11.18;4.45;;;16.00;83.90;;;;;;5070376;28;20480;-57
2022/10/20 09:53:50;;;;;;;7.38;3.55;;;16.10;81.80;;;;;;5071907;28;20103;-56
2022/10/20 09:56:28;;;;;;;9.38;4.40;;;17.10;79.40;;;;;;5069438;28;20056;-57
2022/10/20 09:58:56;;;;;;;7.90;4.53;;;17.60;75.40;;;;;;5067996;28;20467;-57
2022/10/20 10:01:21;;;;;;;9.27;4.72;;;17.30;71.60;;;;;;5072192;28;20175;-56
2022/10/20 10:03:50;;;;;;;7.45;4.00;;;17.10;76.60;;;;;;5072101;28;20462;-55
2022/10/20 10:06:30;;;;;;;6.63;3.78;;;16.60;76.60;;;;;;5068011;28;20032;-58
2022/10/20 10:08:59;;;;;;;8.85;3.78;;;17.40;73.90;;;;;;5069244;28;20020;-56
2022/10/20 10:11:34;;;;;;;9.32;4.90;;;17.50;72.70;;;;;;5072147;28;20032;-57
2022/10/20 10:14:01;;;;;;;6.80;3.67;;;17.80;69.30;;;;;;5070050;28;20021;-56
2022/10/20 10:16:37;;;;;;;7.88;3.90;;;16.60;71.80;;;;;;5070415;28;20032;-55
2022/10/20 10:19:04;;;;;;;6.18;3.90;;;17.80;69.70;;;;;;5069806;28;20357;-56
2022/10/20 10:21:52;;;;;;;8.52;4.40;;;16.00;71.20;;;;;;5070381;28;20028;-56
2022/10/20 10:24:45;;;;;;;8.83;3.63;;;16.70;71.10;;;;;;5069666;28;20470;-56
2022/10/20 10:27:28;;;;;;;5.15;3.08;;;17.10;71.40;;;;;;5053204;28;20263;-54
2022/10/20 10:30:15;;;;;;;5.82;3.65;;;17.20;67.50;;;;;;5071624;28;20035;-57
2022/10/20 10:32:45;;;;;;;10.13;3.63;;;17.70;69.30;;;;;;5068500;28;20017;-56
2022/10/20 10:35:29;;;;;;;7.53;3.20;;;17.10;70.00;;;;;;5071599;28;20380;-54
2022/10/20 10:37:57;;;;;;;4.72;2.55;;;17.60;65.80;;;;;;5069056;28;20028;-55
2022/10/20 10:40:44;;;;;;;11.18;3.40;;;18.50;65.50;;;;;;5071529;28;20028;-53
2022/10/20 10:43:37;;;;;;;6.57;3.00;;;17.50;62.10;;;;;;5070855;28;20051;-56
2022/10/20 10:46:13;;;;;;;10.07;4.07;;;17.60;62.00;;;;;;5069843;28;20025;-56
2022/10/20 10:48:45;;;;;;;9.00;3.53;;;16.90;70.00;;;;;;5069215;28;20040;-56
2022/10/20 10:51:25;;;;;;;11.93;3.45;;;17.10;68.30;;;;;;5071529;28;20039;-57
2022/10/20 10:54:09;;;;;;;7.70;3.45;;;17.10;68.30;;;;;;5070927;28;20476;-53
2022/10/20 10:56:58;;;;;;;7.32;3.53;;;17.30;65.40;;;;;;5067044;28;20032;-55
2022/10/20 10:59:28;;;;;;;;;;;18.20;63.60;;;;;;5069797;28;20012;-55
2022/10/20 11:02:00;;;;;;;8.05;3.00;;;17.70;67.40;;;;;;5068279;28;20469;-55
2022/10/20 11:04:46;;;;;;;5.93;2.60;;;18.30;62.40;;;;;;5070730;28;20032;-55
2022/10/20 11:07:30;;;;;;;5.97;2.75;;;18.40;59.90;;;;;;5067587;28;20086;-55
2022/10/20 11:10:12;;;;;;;5.85;2.40;;;18.60;61.90;;;;;;5068052;28;20377;-56
2022/10/20 11:12:59;;;;;;;3.75;2.10;;;18.10;59.60;;;;;;5068350;28;20025;-56
2022/10/20 11:15:58;;;;;;;3.37;2.20;;;18.00;59.00;;;;;;5069740;28;20031;-55
2022/10/20 11:18:24;;;;;;;;;;;17.60;60.40;;;;;;5070021;28;20032;-56
2022/10/20 11:21:20;;;;;;;3.83;2.08;;;18.20;63.50;;;;;;5070548;28;19919;-55
2022/10/20 11:24:07;;;;;;;5.95;2.13;;;18.20;60.70;;;;;;5069514;28;20037;-56
2022/10/20 11:26:36;;;;;;;7.60;2.92;;;18.40;59.30;;;;;;5068677;28;20016;-57
2022/10/20 11:29:26;;;;;;;5.88;2.42;;;18.20;61.60;;;;;;5070453;28;20397;-57
2022/10/20 11:32:06;;;;;;;4.55;2.10;;;17.90;62.70;;;;;;5069085;28;20032;-55
2022/10/20 11:34:43;;;;;;;2.08;1.58;;;17.90;62.70;;;;;;5070534;28;20025;-56
2022/10/20 11:37:24;;;;;;;4.07;1.90;;;18.30;57.70;;;;;;5070388;28;20098;-57
2022/10/20 11:40:10;;;;;;;4.85;2.03;;;18.10;57.90;;;;;;5069464;28;20034;-56
2022/10/20 11:43:03;;;;;;;5.25;2.08;;;18.20;60.10;;;;;;5066632;28;20053;-57
2022/10/20 11:45:41;;;;;;;5.88;2.00;;;17.90;59.40;;;;;;5067993;28;20112;-55
2022/10/20 11:48:19;;;;;;;5.32;2.15;;;17.90;59.70;;;;;;5068819;28;20101;-55
2022/10/20 11:51:17;;;;;;;7.85;2.30;;;17.60;58.90;;;;;;5068863;28;20043;-55
2022/10/20 11:54:07;;;;;;;4.93;2.45;;;17.20;61.00;;;;;;4997413;28;20037;-55
2022/10/20 11:56:51;;;;;;;4.32;1.58;;;17.30;62.00;;;;;;5067731;28;20029;-56
2022/10/20 11:59:40;;;;;;;4.97;1.70;;;17.60;61.80;;;;;;5066148;28;20048;-56
2022/10/20 12:02:33;;;;;;;6.93;2.45;;;17.70;61.80;;;;;;5065824;28;20024;-56
2022/10/20 12:05:22;;;;;;;3.08;1.35;;;18.10;61.20;;;;;;5066357;28;20027;-57
2022/10/20 12:08:04;;;;;;;6.43;1.85;;;17.80;52.20;;;;;;5056259;28;20523;-56
2022/10/20 12:10:48;;;;;;;5.47;2.50;;;18.10;53.60;;;;;;5067581;28;20478;-56
2022/10/20 12:13:52;;;;;;;5.43;1.50;;;20.20;51.20;;;;;;5068137;28;20032;-58
2022/10/20 12:16:53;;;;;;;3.63;1.60;;;21.80;50.30;;;;;;5025844;28;20127;-57
2022/10/20 12:19:18;;;;;;;2.90;1.55;;;22.30;47.40;;;;;;5068394;28;20441;-57
2022/10/20 12:21:56;;;;;;;4.32;1.70;;;21.80;49.40;;;;;;5067622;28;20059;-58
2022/10/20 12:24:30;;;;;;;;;;;20.90;51.40;;;;;;5068919;28;20078;-57
2022/10/20 12:27:07;;;;;;;4.25;2.05;;;20.40;51.20;;;;;;5074332;28;19912;-56
2022/10/20 12:29:33;;;;;;;7.35;3.13;;;18.30;50.20;;;;;;5067913;28;20025;-56
2022/10/20 12:32:23;;;;;;;7.53;2.85;;;18.60;54.20;;;;;;5067700;28;20043;-56
2022/10/20 12:34:56;;;;;;;4.78;2.40;;;18.40;55.90;;;;;;5072895;28;20109;-57
2022/10/20 12:37:55;;;;;;;4.88;2.13;;;18.40;54.20;;;;;;5076046;28;20196;-55
2022/10/20 12:40:30;;;;;;;5.68;1.50;;;18.20;54.70;;;;;;5071258;28;20024;-58
2022/10/20 12:43:29;;;;;;;5.00;1.75;;;18.20;54.10;;;;;;5067959;28;20048;-58
2022/10/20 12:46:18;;;;;;;2.83;1.42;;;18.00;56.60;;;;;;5072996;28;20028;-58
2022/10/20 12:48:58;;;;;;;3.67;1.92;;;18.10;57.50;;;;;;5071075;28;20484;-57
2022/10/20 12:51:52;;;;;;;4.35;2.30;;;18.20;55.80;;;;;;5073023;28;20454;-55
2022/10/20 12:54:38;;;;;;;2.83;1.55;;;18.10;53.90;;;;;;5035718;28;20078;-57
2022/10/20 12:57:35;;;;;;;3.63;1.23;;;18.00;56.40;;;;;;5071095;28;20178;-59
2022/10/20 13:00:03;;;;;;;7.95;3.03;;;17.70;52.90;;;;;;5064111;28;20071;-58
2022/10/20 13:03:07;;;;;;;3.13;1.55;;;17.20;54.70;;;;;;5071357;28;20025;-58
2022/10/20 13:05:48;;;;;;;7.72;1.67;;;17.10;54.10;;;;;;5071334;28;20395;-58